sensor_id;sensor_type;location;lat;lon;timestamp;temperature;humidity
7016;DHT22;3548;48.402;9.990;2024-01-16T00:00:47;-0.50;99.90
7016;DHT22;3548;48.402;9.990;2024-01-16T00:03:12;-0.50;99.90
7016;DHT22;3548;48.402;9.990;2024-01-16T00:05:38;-0.50;99.90
7016;DHT22;3548;48.402;9.990;2024-01-16T00:08:03;-0.50;99.90
7016;DHT22;3548;48.402;9.990;2024-01-16T00:10:29;-0.40;99.90
7016;DHT22;3548;48.402;9.990;2024-01-16T00:12:54;-0.40;99.90
7016;DHT22;3548;48.402;9.990;2024-01-16T00:15:20;-0.40;99.90
7016;DHT22;3548;48.402;9.990;2024-01-16T00:17:46;-0.50;99.90
7016;DHT22;3548;48.402;9.990;2024-01-16T00:20:11;-0.60;99.90
7016;DHT22;3548;48.402;9.990;2024-01-16T00:22:37;-0.70;99.90
7016;DHT22;3548;48.402;9.990;2024-01-16T00:25:03;-0.70;99.90
7016;DHT22;3548;48.402;9.990;2024-01-16T00:27:28;-0.80;99.90
7016;DHT22;3548;48.402;9.990;2024-01-16T00:29:54;-0.90;99.90
7016;DHT22;3548;48.402;9.990;2024-01-16T00:32:19;-0.90;99.90
7016;DHT22;3548;48.402;9.990;2024-01-16T00:34:45;-1.00;99.90
7016;DHT22;3548;48.402;9.990;2024-01-16T00:37:10;-1.10;99.90
7016;DHT22;3548;48.402;9.990;2024-01-16T00:39:36;-1.10;99.90
7016;DHT22;3548;48.402;9.990;2024-01-16T00:42:02;-1.10;99.90
7016;DHT22;3548;48.402;9.990;2024-01-16T00:44:28;-1.20;99.90
7016;DHT22;3548;48.402;9.990;2024-01-16T00:46:53;-1.30;99.90
7016;DHT22;3548;48.402;9.990;2024-01-16T00:49:19;-1.30;99.90
7016;DHT22;3548;48.402;9.990;2024-01-16T00:51:45;-1.30;99.90
7016;DHT22;3548;48.402;9.990;2024-01-16T00:54:10;-1.30;99.90
7016;DHT22;3548;48.402;9.990;2024-01-16T00:56:36;-1.40;99.90
7016;DHT22;3548;48.402;9.990;2024-01-16T00:59:02;-1.40;99.90
7016;DHT22;3548;48.402;9.990;2024-01-16T01:01:27;-1.40;99.90
7016;DHT22;3548;48.402;9.990;2024-01-16T01:03:53;-1.50;99.90
7016;DHT22;3548;48.402;9.990;2024-01-16T01:06:19;-1.50;99.90
7016;DHT22;3548;48.402;9.990;2024-01-16T01:08:44;-1.50;99.90
7016;DHT22;3548;48.402;9.990;2024-01-16T01:11:11;-1.50;99.90
7016;DHT22;3548;48.402;9.990;2024-01-16T01:13:37;-1.40;99.90
7016;DHT22;3548;48.402;9.990;2024-01-16T01:16:03;-1.40;99.90
7016;DHT22;3548;48.402;9.990;2024-01-16T01:18:28;-1.40;99.90
7016;DHT22;3548;48.402;9.990;2024-01-16T01:20:54;-1.50;99.90
7016;DHT22;3548;48.402;9.990;2024-01-16T01:23:19;-1.50;99.90
7016;DHT22;3548;48.402;9.990;2024-01-16T01:25:45;-1.50;99.90
7016;DHT22;3548;48.402;9.990;2024-01-16T01:28:10;-1.50;99.90
7016;DHT22;3548;48.402;9.990;2024-01-16T01:30:37;-1.60;99.90
7016;DHT22;3548;48.402;9.990;2024-01-16T01:33:02;-1.70;99.90
7016;DHT22;3548;48.402;9.990;2024-01-16T01:35:29;-1.70;99.90
7016;DHT22;3548;48.402;9.990;2024-01-16T01:37:54;-1.70;99.90
7016;DHT22;3548;48.402;9.990;2024-01-16T01:40:20;-1.70;99.90
7016;DHT22;3548;48.402;9.990;2024-01-16T01:42:46;-1.80;99.90
7016;DHT22;3548;48.402;9.990;2024-01-16T01:45:11;-1.80;99.90
7016;DHT22;3548;48.402;9.990;2024-01-16T01:47:41;-1.80;99.90
7016;DHT22;3548;48.402;9.990;2024-01-16T01:50:10;-1.80;99.90
7016;DHT22;3548;48.402;9.990;2024-01-16T01:52:42;-1.80;99.90
7016;DHT22;3548;48.402;9.990;2024-01-16T01:55:10;-1.80;99.90
7016;DHT22;3548;48.402;9.990;2024-01-16T01:57:36;-1.90;99.90
7016;DHT22;3548;48.402;9.990;2024-01-16T02:00:02;-1.90;99.90
7016;DHT22;3548;48.402;9.990;2024-01-16T02:02:30;-1.90;99.90
7016;DHT22;3548;48.402;9.990;2024-01-16T02:04:56;-2.00;99.90
7016;DHT22;3548;48.402;9.990;2024-01-16T02:07:21;-2.00;99.90
7016;DHT22;3548;48.402;9.990;2024-01-16T02:09:47;-2.10;99.90
7016;DHT22;3548;48.402;9.990;2024-01-16T02:12:13;-2.10;99.90
7016;DHT22;3548;48.402;9.990;2024-01-16T02:14:39;-2.20;99.90
7016;DHT22;3548;48.402;9.990;2024-01-16T02:17:04;-2.20;99.90
7016;DHT22;3548;48.402;9.990;2024-01-16T02:19:31;-2.20;99.90
7016;DHT22;3548;48.402;9.990;2024-01-16T02:21:59;-2.20;99.90
7016;DHT22;3548;48.402;9.990;2024-01-16T02:24:25;-2.30;99.90
7016;DHT22;3548;48.402;9.990;2024-01-16T02:26:51;-2.30;99.90
7016;DHT22;3548;48.402;9.990;2024-01-16T02:29:17;-2.30;99.90
7016;DHT22;3548;48.402;9.990;2024-01-16T02:31:43;-2.30;99.90
7016;DHT22;3548;48.402;9.990;2024-01-16T02:34:08;-2.30;99.90
7016;DHT22;3548;48.402;9.990;2024-01-16T02:36:34;-2.30;99.90
7016;DHT22;3548;48.402;9.990;2024-01-16T02:39:00;-2.30;99.90
7016;DHT22;3548;48.402;9.990;2024-01-16T02:41:26;-2.40;99.90
7016;DHT22;3548;48.402;9.990;2024-01-16T02:43:51;-2.40;99.90
7016;DHT22;3548;48.402;9.990;2024-01-16T02:46:17;-2.40;99.90
7016;DHT22;3548;48.402;9.990;2024-01-16T02:48:43;-2.40;99.90
7016;DHT22;3548;48.402;9.990;2024-01-16T02:51:09;-2.50;99.90
7016;DHT22;3548;48.402;9.990;2024-01-16T02:53:35;-2.60;99.90
7016;DHT22;3548;48.402;9.990;2024-01-16T02:56:00;-2.70;99.90
7016;DHT22;3548;48.402;9.990;2024-01-16T02:58:29;-2.80;99.90
7016;DHT22;3548;48.402;9.990;2024-01-16T03:00:56;-2.90;99.90
7016;DHT22;3548;48.402;9.990;2024-01-16T03:03:22;-2.90;99.90
7016;DHT22;3548;48.402;9.990;2024-01-16T03:05:48;-3.00;99.90
7016;DHT22;3548;48.402;9.990;2024-01-16T03:08:13;-3.00;99.90
7016;DHT22;3548;48.402;9.990;2024-01-16T03:10:39;-3.10;99.90
7016;DHT22;3548;48.402;9.990;2024-01-16T03:13:05;-3.10;99.90
7016;DHT22;3548;48.402;9.990;2024-01-16T03:15:30;-3.10;99.90
7016;DHT22;3548;48.402;9.990;2024-01-16T03:17:57;-3.20;99.90
7016;DHT22;3548;48.402;9.990;2024-01-16T03:20:22;-3.20;99.90
7016;DHT22;3548;48.402;9.990;2024-01-16T03:22:49;-3.10;99.90
7016;DHT22;3548;48.402;9.990;2024-01-16T03:25:15;-3.20;99.90
7016;DHT22;3548;48.402;9.990;2024-01-16T03:27:42;-3.20;99.90
7016;DHT22;3548;48.402;9.990;2024-01-16T03:30:08;-3.20;99.90
7016;DHT22;3548;48.402;9.990;2024-01-16T03:32:35;-3.20;99.90
7016;DHT22;3548;48.402;9.990;2024-01-16T03:35:00;-3.30;99.90
7016;DHT22;3548;48.402;9.990;2024-01-16T03:37:26;-3.50;99.90
7016;DHT22;3548;48.402;9.990;2024-01-16T03:39:51;-3.40;99.90
7016;DHT22;3548;48.402;9.990;2024-01-16T03:42:17;-3.40;99.90
7016;DHT22;3548;48.402;9.990;2024-01-16T03:44:43;-3.40;99.90
7016;DHT22;3548;48.402;9.990;2024-01-16T03:47:08;-3.40;99.90
7016;DHT22;3548;48.402;9.990;2024-01-16T03:49:34;-3.30;99.90
7016;DHT22;3548;48.402;9.990;2024-01-16T03:52:00;-3.30;99.90
7016;DHT22;3548;48.402;9.990;2024-01-16T03:54:25;-3.30;99.90
7016;DHT22;3548;48.402;9.990;2024-01-16T03:56:51;-3.20;99.90
7016;DHT22;3548;48.402;9.990;2024-01-16T03:59:17;-3.20;99.90
7016;DHT22;3548;48.402;9.990;2024-01-16T04:01:42;-3.20;99.90
7016;DHT22;3548;48.402;9.990;2024-01-16T04:04:10;-3.30;99.90
7016;DHT22;3548;48.402;9.990;2024-01-16T04:06:36;-3.30;99.90
7016;DHT22;3548;48.402;9.990;2024-01-16T04:09:01;-3.30;99.90
7016;DHT22;3548;48.402;9.990;2024-01-16T04:11:28;-3.40;99.90
7016;DHT22;3548;48.402;9.990;2024-01-16T04:13:54;-3.50;99.90
7016;DHT22;3548;48.402;9.990;2024-01-16T04:16:20;-3.30;99.90
7016;DHT22;3548;48.402;9.990;2024-01-16T04:18:45;-3.40;99.90
7016;DHT22;3548;48.402;9.990;2024-01-16T04:21:11;-3.40;99.90
7016;DHT22;3548;48.402;9.990;2024-01-16T04:23:37;-3.40;99.90
7016;DHT22;3548;48.402;9.990;2024-01-16T04:26:02;-3.30;99.90
7016;DHT22;3548;48.402;9.990;2024-01-16T04:28:28;-3.40;99.90
7016;DHT22;3548;48.402;9.990;2024-01-16T04:30:53;-3.40;99.90
7016;DHT22;3548;48.402;9.990;2024-01-16T04:33:19;-3.50;99.90
7016;DHT22;3548;48.402;9.990;2024-01-16T04:35:45;-3.60;99.90
7016;DHT22;3548;48.402;9.990;2024-01-16T04:38:10;-3.60;99.90
7016;DHT22;3548;48.402;9.990;2024-01-16T04:40:36;-3.70;99.90
7016;DHT22;3548;48.402;9.990;2024-01-16T04:43:02;-3.70;99.90
7016;DHT22;3548;48.402;9.990;2024-01-16T04:45:28;-3.80;99.90
7016;DHT22;3548;48.402;9.990;2024-01-16T04:47:53;-3.90;99.90
7016;DHT22;3548;48.402;9.990;2024-01-16T04:50:19;-4.00;99.90
7016;DHT22;3548;48.402;9.990;2024-01-16T04:52:44;-4.00;99.90
7016;DHT22;3548;48.402;9.990;2024-01-16T04:55:10;-4.10;99.90
7016;DHT22;3548;48.402;9.990;2024-01-16T04:57:35;-4.10;99.90
7016;DHT22;3548;48.402;9.990;2024-01-16T05:00:01;-4.10;99.90
7016;DHT22;3548;48.402;9.990;2024-01-16T05:02:35;-4.10;99.90
7016;DHT22;3548;48.402;9.990;2024-01-16T05:05:00;-4.00;99.90
7016;DHT22;3548;48.402;9.990;2024-01-16T05:07:26;-4.10;99.90
7016;DHT22;3548;48.402;9.990;2024-01-16T05:09:52;-4.00;99.90
7016;DHT22;3548;48.402;9.990;2024-01-16T05:12:17;-4.10;99.90
7016;DHT22;3548;48.402;9.990;2024-01-16T05:14:43;-4.20;99.90
7016;DHT22;3548;48.402;9.990;2024-01-16T05:17:08;-4.10;99.90
7016;DHT22;3548;48.402;9.990;2024-01-16T05:19:34;-4.20;99.90
7016;DHT22;3548;48.402;9.990;2024-01-16T05:21:59;-4.20;99.90
7016;DHT22;3548;48.402;9.990;2024-01-16T05:24:25;-4.20;99.90
7016;DHT22;3548;48.402;9.990;2024-01-16T05:26:50;-4.20;99.90
7016;DHT22;3548;48.402;9.990;2024-01-16T05:29:18;-4.20;99.90
7016;DHT22;3548;48.402;9.990;2024-01-16T05:31:44;-4.20;99.90
7016;DHT22;3548;48.402;9.990;2024-01-16T05:34:12;-4.30;99.90
7016;DHT22;3548;48.402;9.990;2024-01-16T05:36:38;-4.20;99.90
7016;DHT22;3548;48.402;9.990;2024-01-16T05:39:03;-4.20;99.90
7016;DHT22;3548;48.402;9.990;2024-01-16T05:41:33;-4.30;99.90
7016;DHT22;3548;48.402;9.990;2024-01-16T05:43:59;-4.30;99.90
7016;DHT22;3548;48.402;9.990;2024-01-16T05:46:24;-4.30;99.90
7016;DHT22;3548;48.402;9.990;2024-01-16T05:48:50;-4.30;99.90
7016;DHT22;3548;48.402;9.990;2024-01-16T05:51:16;-4.30;99.90
7016;DHT22;3548;48.402;9.990;2024-01-16T05:53:41;-4.30;99.90
7016;DHT22;3548;48.402;9.990;2024-01-16T05:56:07;-4.30;99.90
7016;DHT22;3548;48.402;9.990;2024-01-16T05:58:33;-4.40;99.90
7016;DHT22;3548;48.402;9.990;2024-01-16T06:01:06;-4.40;99.90
7016;DHT22;3548;48.402;9.990;2024-01-16T06:03:32;-4.50;99.90
7016;DHT22;3548;48.402;9.990;2024-01-16T06:05:58;-4.50;99.90
7016;DHT22;3548;48.402;9.990;2024-01-16T06:08:24;-4.50;99.90
7016;DHT22;3548;48.402;9.990;2024-01-16T06:10:49;-4.50;99.90
7016;DHT22;3548;48.402;9.990;2024-01-16T06:13:15;-4.40;99.90
7016;DHT22;3548;48.402;9.990;2024-01-16T06:15:41;-4.40;99.90
7016;DHT22;3548;48.402;9.990;2024-01-16T06:18:06;-4.40;99.90
7016;DHT22;3548;48.402;9.990;2024-01-16T06:20:32;-4.30;99.90
7016;DHT22;3548;48.402;9.990;2024-01-16T06:22:59;-4.30;99.90
7016;DHT22;3548;48.402;9.990;2024-01-16T06:25:24;-4.30;99.90
7016;DHT22;3548;48.402;9.990;2024-01-16T06:27:50;-4.30;99.90
7016;DHT22;3548;48.402;9.990;2024-01-16T06:30:15;-4.30;99.90
7016;DHT22;3548;48.402;9.990;2024-01-16T06:32:41;-4.20;99.90
7016;DHT22;3548;48.402;9.990;2024-01-16T06:35:06;-4.20;99.90
7016;DHT22;3548;48.402;9.990;2024-01-16T06:37:33;-4.20;99.90
7016;DHT22;3548;48.402;9.990;2024-01-16T06:39:59;-4.20;99.90
7016;DHT22;3548;48.402;9.990;2024-01-16T06:42:24;-4.20;99.90
7016;DHT22;3548;48.402;9.990;2024-01-16T06:44:50;-4.00;99.90
7016;DHT22;3548;48.402;9.990;2024-01-16T06:47:15;-4.00;99.90
7016;DHT22;3548;48.402;9.990;2024-01-16T06:49:41;-4.00;99.90
7016;DHT22;3548;48.402;9.990;2024-01-16T06:52:08;-4.00;99.90
7016;DHT22;3548;48.402;9.990;2024-01-16T06:54:33;-3.90;99.90
7016;DHT22;3548;48.402;9.990;2024-01-16T06:56:59;-3.90;99.90
7016;DHT22;3548;48.402;9.990;2024-01-16T06:59:24;-3.80;99.90
7016;DHT22;3548;48.402;9.990;2024-01-16T07:01:50;-3.80;99.90
7016;DHT22;3548;48.402;9.990;2024-01-16T07:04:16;-3.80;99.90
7016;DHT22;3548;48.402;9.990;2024-01-16T07:06:42;-3.70;99.90
7016;DHT22;3548;48.402;9.990;2024-01-16T07:09:09;-3.70;99.90
7016;DHT22;3548;48.402;9.990;2024-01-16T07:11:36;-3.60;99.90
7016;DHT22;3548;48.402;9.990;2024-01-16T07:14:03;-3.70;99.90
7016;DHT22;3548;48.402;9.990;2024-01-16T07:16:28;-3.60;99.90
7016;DHT22;3548;48.402;9.990;2024-01-16T07:18:54;-3.60;99.90
7016;DHT22;3548;48.402;9.990;2024-01-16T07:21:20;-3.50;99.90
7016;DHT22;3548;48.402;9.990;2024-01-16T07:23:47;-3.50;99.90
7016;DHT22;3548;48.402;9.990;2024-01-16T07:26:12;-3.40;99.90
7016;DHT22;3548;48.402;9.990;2024-01-16T07:28:38;-3.30;99.90
7016;DHT22;3548;48.402;9.990;2024-01-16T07:31:04;-3.20;99.90
7016;DHT22;3548;48.402;9.990;2024-01-16T07:33:29;-3.20;99.90
7016;DHT22;3548;48.402;9.990;2024-01-16T07:35:55;-3.10;99.90
7016;DHT22;3548;48.402;9.990;2024-01-16T07:38:20;-3.10;99.90
7016;DHT22;3548;48.402;9.990;2024-01-16T07:40:46;-3.10;99.90
7016;DHT22;3548;48.402;9.990;2024-01-16T07:43:11;-3.00;99.90
7016;DHT22;3548;48.402;9.990;2024-01-16T07:45:37;-3.00;99.90
7016;DHT22;3548;48.402;9.990;2024-01-16T07:48:03;-3.00;99.90
7016;DHT22;3548;48.402;9.990;2024-01-16T07:50:28;-2.90;99.90
7016;DHT22;3548;48.402;9.990;2024-01-16T07:52:54;-3.00;99.90
7016;DHT22;3548;48.402;9.990;2024-01-16T07:55:20;-3.00;99.90
7016;DHT22;3548;48.402;9.990;2024-01-16T07:57:45;-3.00;99.90
7016;DHT22;3548;48.402;9.990;2024-01-16T08:00:11;-3.00;99.90
7016;DHT22;3548;48.402;9.990;2024-01-16T08:02:40;-3.00;99.90
7016;DHT22;3548;48.402;9.990;2024-01-16T08:05:07;-2.90;99.90
7016;DHT22;3548;48.402;9.990;2024-01-16T08:07:32;-2.80;99.90
7016;DHT22;3548;48.402;9.990;2024-01-16T08:09:58;-2.70;99.90
7016;DHT22;3548;48.402;9.990;2024-01-16T08:12:23;-2.70;99.90
7016;DHT22;3548;48.402;9.990;2024-01-16T08:14:49;-2.60;99.90
7016;DHT22;3548;48.402;9.990;2024-01-16T08:17:14;-2.70;99.90
7016;DHT22;3548;48.402;9.990;2024-01-16T08:19:41;-2.70;99.90
7016;DHT22;3548;48.402;9.990;2024-01-16T08:22:06;-2.70;99.90
7016;DHT22;3548;48.402;9.990;2024-01-16T08:24:32;-2.70;99.90
7016;DHT22;3548;48.402;9.990;2024-01-16T08:26:57;-2.80;99.90
7016;DHT22;3548;48.402;9.990;2024-01-16T08:29:26;-2.80;99.90
7016;DHT22;3548;48.402;9.990;2024-01-16T08:31:52;-2.90;99.90
7016;DHT22;3548;48.402;9.990;2024-01-16T08:34:18;-2.80;99.90
7016;DHT22;3548;48.402;9.990;2024-01-16T08:36:44;-2.70;99.90
7016;DHT22;3548;48.402;9.990;2024-01-16T08:39:09;-2.60;99.90
7016;DHT22;3548;48.402;9.990;2024-01-16T08:41:35;-2.60;99.90
7016;DHT22;3548;48.402;9.990;2024-01-16T08:44:01;-2.50;99.90
7016;DHT22;3548;48.402;9.990;2024-01-16T08:46:27;-2.40;99.90
7016;DHT22;3548;48.402;9.990;2024-01-16T08:48:52;-2.30;99.90
7016;DHT22;3548;48.402;9.990;2024-01-16T08:51:18;-2.20;99.90
7016;DHT22;3548;48.402;9.990;2024-01-16T08:53:43;-2.10;99.90
7016;DHT22;3548;48.402;9.990;2024-01-16T08:56:09;-2.10;99.90
7016;DHT22;3548;48.402;9.990;2024-01-16T08:58:35;-2.00;99.90
7016;DHT22;3548;48.402;9.990;2024-01-16T09:01:03;-1.90;99.90
7016;DHT22;3548;48.402;9.990;2024-01-16T09:03:31;-1.80;99.90
7016;DHT22;3548;48.402;9.990;2024-01-16T09:05:57;-1.70;99.90
7016;DHT22;3548;48.402;9.990;2024-01-16T09:08:22;-1.60;99.90
7016;DHT22;3548;48.402;9.990;2024-01-16T09:10:48;-1.40;99.90
7016;DHT22;3548;48.402;9.990;2024-01-16T09:13:13;-1.30;99.90
7016;DHT22;3548;48.402;9.990;2024-01-16T09:15:39;-1.20;99.90
7016;DHT22;3548;48.402;9.990;2024-01-16T09:18:05;-1.10;99.90
7016;DHT22;3548;48.402;9.990;2024-01-16T09:20:31;-1.10;99.90
7016;DHT22;3548;48.402;9.990;2024-01-16T09:22:57;-1.00;99.90
7016;DHT22;3548;48.402;9.990;2024-01-16T09:25:22;-0.90;99.90
7016;DHT22;3548;48.402;9.990;2024-01-16T09:27:50;-0.80;99.90
7016;DHT22;3548;48.402;9.990;2024-01-16T09:30:16;-0.80;99.90
7016;DHT22;3548;48.402;9.990;2024-01-16T09:32:42;-0.70;99.90
7016;DHT22;3548;48.402;9.990;2024-01-16T09:35:08;-0.70;99.90
7016;DHT22;3548;48.402;9.990;2024-01-16T09:37:35;-0.60;99.90
7016;DHT22;3548;48.402;9.990;2024-01-16T09:40:00;-0.60;99.90
7016;DHT22;3548;48.402;9.990;2024-01-16T09:42:27;-0.50;99.90
7016;DHT22;3548;48.402;9.990;2024-01-16T09:44:55;-0.40;99.90
7016;DHT22;3548;48.402;9.990;2024-01-16T09:47:21;-0.30;99.90
7016;DHT22;3548;48.402;9.990;2024-01-16T09:49:47;-0.10;99.90
7016;DHT22;3548;48.402;9.990;2024-01-16T09:52:14;0.00;99.90
7016;DHT22;3548;48.402;9.990;2024-01-16T09:54:40;0.10;99.90
7016;DHT22;3548;48.402;9.990;2024-01-16T09:57:07;0.30;99.90
7016;DHT22;3548;48.402;9.990;2024-01-16T09:59:33;0.40;99.90
7016;DHT22;3548;48.402;9.990;2024-01-16T10:02:01;0.40;98.60
7016;DHT22;3548;48.402;9.990;2024-01-16T10:04:31;0.40;99.20
7016;DHT22;3548;48.402;9.990;2024-01-16T10:06:57;0.50;99.50
7016;DHT22;3548;48.402;9.990;2024-01-16T10:09:23;0.50;97.30
7016;DHT22;3548;48.402;9.990;2024-01-16T10:11:50;0.60;98.30
7016;DHT22;3548;48.402;9.990;2024-01-16T10:14:17;0.70;98.20
7016;DHT22;3548;48.402;9.990;2024-01-16T10:17:02;0.80;97.90
7016;DHT22;3548;48.402;9.990;2024-01-16T10:19:31;0.80;97.50
7016;DHT22;3548;48.402;9.990;2024-01-16T10:22:04;0.80;97.20
7016;DHT22;3548;48.402;9.990;2024-01-16T10:24:30;0.80;96.80
7016;DHT22;3548;48.402;9.990;2024-01-16T10:27:00;0.80;97.80
7016;DHT22;3548;48.402;9.990;2024-01-16T10:29:26;0.90;97.90
7016;DHT22;3548;48.402;9.990;2024-01-16T10:31:51;1.10;97.90
7016;DHT22;3548;48.402;9.990;2024-01-16T10:34:22;1.20;97.90
7016;DHT22;3548;48.402;9.990;2024-01-16T10:36:50;1.40;98.00
7016;DHT22;3548;48.402;9.990;2024-01-16T10:39:16;1.60;98.10
7016;DHT22;3548;48.402;9.990;2024-01-16T10:41:45;1.70;98.10
7016;DHT22;3548;48.402;9.990;2024-01-16T10:44:18;1.80;97.90
7016;DHT22;3548;48.402;9.990;2024-01-16T10:46:44;1.90;97.30
7016;DHT22;3548;48.402;9.990;2024-01-16T10:49:09;1.90;97.50
7016;DHT22;3548;48.402;9.990;2024-01-16T10:51:35;2.00;97.50
7016;DHT22;3548;48.402;9.990;2024-01-16T10:54:04;2.00;97.40
7016;DHT22;3548;48.402;9.990;2024-01-16T10:56:31;2.00;96.60
7016;DHT22;3548;48.402;9.990;2024-01-16T10:59:06;2.00;97.00
7016;DHT22;3548;48.402;9.990;2024-01-16T11:01:35;2.00;96.90
7016;DHT22;3548;48.402;9.990;2024-01-16T11:04:01;2.10;97.10
7016;DHT22;3548;48.402;9.990;2024-01-16T11:06:28;2.10;97.00
7016;DHT22;3548;48.402;9.990;2024-01-16T11:08:56;2.20;97.00
7016;DHT22;3548;48.402;9.990;2024-01-16T11:11:23;2.30;96.90
7016;DHT22;3548;48.402;9.990;2024-01-16T11:13:50;2.30;96.20
7016;DHT22;3548;48.402;9.990;2024-01-16T11:16:16;2.20;96.40
7016;DHT22;3548;48.402;9.990;2024-01-16T11:18:42;2.20;96.50
7016;DHT22;3548;48.402;9.990;2024-01-16T11:21:10;2.20;96.50
7016;DHT22;3548;48.402;9.990;2024-01-16T11:23:37;2.30;96.70
7016;DHT22;3548;48.402;9.990;2024-01-16T11:28:51;2.30;96.40
7016;DHT22;3548;48.402;9.990;2024-01-16T11:31:33;2.30;95.80
7016;DHT22;3548;48.402;9.990;2024-01-16T11:34:00;2.20;96.00
7016;DHT22;3548;48.402;9.990;2024-01-16T11:36:51;2.20;96.40
7016;DHT22;3548;48.402;9.990;2024-01-16T11:39:24;2.40;96.60
7016;DHT22;3548;48.402;9.990;2024-01-16T11:44:48;3.00;96.70
7016;DHT22;3548;48.402;9.990;2024-01-16T11:47:20;3.30;95.50
7016;DHT22;3548;48.402;9.990;2024-01-16T11:49:46;3.70;95.40
7016;DHT22;3548;48.402;9.990;2024-01-16T11:52:12;3.80;94.50
7016;DHT22;3548;48.402;9.990;2024-01-16T11:54:39;3.90;93.20
7016;DHT22;3548;48.402;9.990;2024-01-16T12:00:03;3.60;92.90
7016;DHT22;3548;48.402;9.990;2024-01-16T12:02:56;3.30;93.10
7016;DHT22;3548;48.402;9.990;2024-01-16T12:05:22;3.20;93.20
7016;DHT22;3548;48.402;9.990;2024-01-16T12:07:49;3.20;93.00
7016;DHT22;3548;48.402;9.990;2024-01-16T12:10:23;3.10;93.20
7016;DHT22;3548;48.402;9.990;2024-01-16T12:12:49;3.20;93.50
7016;DHT22;3548;48.402;9.990;2024-01-16T12:15:16;3.20;92.90
7016;DHT22;3548;48.402;9.990;2024-01-16T12:17:56;3.20;92.50
7016;DHT22;3548;48.402;9.990;2024-01-16T12:20:23;3.10;92.80
7016;DHT22;3548;48.402;9.990;2024-01-16T12:23:05;3.20;93.10
7016;DHT22;3548;48.402;9.990;2024-01-16T12:25:35;3.30;92.60
7016;DHT22;3548;48.402;9.990;2024-01-16T12:28:05;3.40;92.30
7016;DHT22;3548;48.402;9.990;2024-01-16T12:30:35;3.40;91.70
7016;DHT22;3548;48.402;9.990;2024-01-16T12:33:11;3.50;91.90
7016;DHT22;3548;48.402;9.990;2024-01-16T12:35:42;3.50;91.60
7016;DHT22;3548;48.402;9.990;2024-01-16T12:38:11;3.40;91.20
7016;DHT22;3548;48.402;9.990;2024-01-16T12:40:44;3.40;91.30
7016;DHT22;3548;48.402;9.990;2024-01-16T12:43:10;3.40;90.80
7016;DHT22;3548;48.402;9.990;2024-01-16T12:45:36;3.40;91.50
7016;DHT22;3548;48.402;9.990;2024-01-16T12:48:02;3.50;91.40
7016;DHT22;3548;48.402;9.990;2024-01-16T12:50:31;3.60;90.80
7016;DHT22;3548;48.402;9.990;2024-01-16T12:53:06;3.60;90.60
7016;DHT22;3548;48.402;9.990;2024-01-16T12:55:33;3.50;90.60
7016;DHT22;3548;48.402;9.990;2024-01-16T12:58:15;3.50;90.30
7016;DHT22;3548;48.402;9.990;2024-01-16T13:00:42;3.50;90.50
7016;DHT22;3548;48.402;9.990;2024-01-16T13:03:14;3.50;90.20
7016;DHT22;3548;48.402;9.990;2024-01-16T13:05:39;3.50;90.20
7016;DHT22;3548;48.402;9.990;2024-01-16T13:08:05;3.50;88.40
7016;DHT22;3548;48.402;9.990;2024-01-16T13:10:31;3.40;88.90
7016;DHT22;3548;48.402;9.990;2024-01-16T13:13:17;3.40;90.10
7016;DHT22;3548;48.402;9.990;2024-01-16T13:15:44;3.40;90.20
7016;DHT22;3548;48.402;9.990;2024-01-16T13:18:20;3.50;90.40
7016;DHT22;3548;48.402;9.990;2024-01-16T13:20:49;3.60;90.50
7016;DHT22;3548;48.402;9.990;2024-01-16T13:23:14;3.70;89.80
7016;DHT22;3548;48.402;9.990;2024-01-16T13:25:45;3.70;89.10
7016;DHT22;3548;48.402;9.990;2024-01-16T13:28:14;3.70;88.40
7016;DHT22;3548;48.402;9.990;2024-01-16T13:30:41;3.80;88.00
7016;DHT22;3548;48.402;9.990;2024-01-16T13:33:07;3.80;88.20
7016;DHT22;3548;48.402;9.990;2024-01-16T13:35:39;3.80;87.80
7016;DHT22;3548;48.402;9.990;2024-01-16T13:38:06;3.80;87.80
7016;DHT22;3548;48.402;9.990;2024-01-16T13:40:33;3.80;88.00
7016;DHT22;3548;48.402;9.990;2024-01-16T13:43:00;3.80;88.30
7016;DHT22;3548;48.402;9.990;2024-01-16T13:45:29;3.90;87.80
7016;DHT22;3548;48.402;9.990;2024-01-16T13:47:56;3.80;86.10
7016;DHT22;3548;48.402;9.990;2024-01-16T13:50:22;3.70;86.20
7016;DHT22;3548;48.402;9.990;2024-01-16T13:52:48;3.60;87.70
7016;DHT22;3548;48.402;9.990;2024-01-16T13:55:14;3.50;88.30
7016;DHT22;3548;48.402;9.990;2024-01-16T13:57:39;3.50;88.70
7016;DHT22;3548;48.402;9.990;2024-01-16T14:00:07;3.50;89.10
7016;DHT22;3548;48.402;9.990;2024-01-16T14:02:33;3.40;88.50
7016;DHT22;3548;48.402;9.990;2024-01-16T14:05:04;3.40;88.60
7016;DHT22;3548;48.402;9.990;2024-01-16T14:07:31;3.50;89.50
7016;DHT22;3548;48.402;9.990;2024-01-16T14:09:57;3.60;88.30
7016;DHT22;3548;48.402;9.990;2024-01-16T14:12:23;3.70;87.90
7016;DHT22;3548;48.402;9.990;2024-01-16T14:14:50;3.70;88.30
7016;DHT22;3548;48.402;9.990;2024-01-16T14:17:16;3.80;87.50
7016;DHT22;3548;48.402;9.990;2024-01-16T14:19:42;3.80;87.90
7016;DHT22;3548;48.402;9.990;2024-01-16T14:22:08;3.90;87.90
7016;DHT22;3548;48.402;9.990;2024-01-16T14:24:34;3.80;87.20
7016;DHT22;3548;48.402;9.990;2024-01-16T14:27:00;3.80;88.40
7016;DHT22;3548;48.402;9.990;2024-01-16T14:29:25;3.70;88.60
7016;DHT22;3548;48.402;9.990;2024-01-16T14:31:52;3.70;89.10
7016;DHT22;3548;48.402;9.990;2024-01-16T14:34:17;3.70;88.10
7016;DHT22;3548;48.402;9.990;2024-01-16T14:36:43;3.60;87.60
7016;DHT22;3548;48.402;9.990;2024-01-16T14:39:09;3.50;88.40
7016;DHT22;3548;48.402;9.990;2024-01-16T14:41:39;3.40;88.90
7016;DHT22;3548;48.402;9.990;2024-01-16T14:44:04;3.40;89.00
7016;DHT22;3548;48.402;9.990;2024-01-16T14:46:31;3.30;89.50
7016;DHT22;3548;48.402;9.990;2024-01-16T14:48:58;3.20;90.20
7016;DHT22;3548;48.402;9.990;2024-01-16T14:51:24;3.00;90.60
7016;DHT22;3548;48.402;9.990;2024-01-16T14:53:50;2.90;90.70
7016;DHT22;3548;48.402;9.990;2024-01-16T14:56:16;2.80;90.70
7016;DHT22;3548;48.402;9.990;2024-01-16T14:58:41;2.70;90.70
7016;DHT22;3548;48.402;9.990;2024-01-16T15:01:09;2.60;91.00
7016;DHT22;3548;48.402;9.990;2024-01-16T15:03:35;2.60;91.50
7016;DHT22;3548;48.402;9.990;2024-01-16T15:06:02;2.50;91.50
7016;DHT22;3548;48.402;9.990;2024-01-16T15:08:28;2.50;91.40
7016;DHT22;3548;48.402;9.990;2024-01-16T15:10:57;2.40;91.50
7016;DHT22;3548;48.402;9.990;2024-01-16T15:13:25;2.30;91.80
7016;DHT22;3548;48.402;9.990;2024-01-16T15:15:51;2.30;91.70
7016;DHT22;3548;48.402;9.990;2024-01-16T15:18:19;2.20;91.80
7016;DHT22;3548;48.402;9.990;2024-01-16T15:20:44;2.20;91.80
7016;DHT22;3548;48.402;9.990;2024-01-16T15:23:11;2.20;92.30
7016;DHT22;3548;48.402;9.990;2024-01-16T15:25:37;2.10;92.00
7016;DHT22;3548;48.402;9.990;2024-01-16T15:28:03;2.10;92.30
7016;DHT22;3548;48.402;9.990;2024-01-16T15:30:29;2.00;92.10
7016;DHT22;3548;48.402;9.990;2024-01-16T15:33:07;1.90;92.20
7016;DHT22;3548;48.402;9.990;2024-01-16T15:35:32;1.90;92.30
7016;DHT22;3548;48.402;9.990;2024-01-16T15:37:58;1.80;92.30
7016;DHT22;3548;48.402;9.990;2024-01-16T15:40:23;1.70;92.70
7016;DHT22;3548;48.402;9.990;2024-01-16T15:42:49;1.70;92.90
7016;DHT22;3548;48.402;9.990;2024-01-16T15:45:15;1.60;92.90
7016;DHT22;3548;48.402;9.990;2024-01-16T15:47:40;1.60;93.10
7016;DHT22;3548;48.402;9.990;2024-01-16T15:50:07;1.50;93.10
7016;DHT22;3548;48.402;9.990;2024-01-16T15:52:33;1.40;92.90
7016;DHT22;3548;48.402;9.990;2024-01-16T15:54:59;1.40;93.20
7016;DHT22;3548;48.402;9.990;2024-01-16T15:57:25;1.40;93.30
7016;DHT22;3548;48.402;9.990;2024-01-16T15:59:50;1.30;93.40
7016;DHT22;3548;48.402;9.990;2024-01-16T16:02:16;1.30;93.30
7016;DHT22;3548;48.402;9.990;2024-01-16T16:04:42;1.20;93.60
7016;DHT22;3548;48.402;9.990;2024-01-16T16:07:07;1.20;93.70
7016;DHT22;3548;48.402;9.990;2024-01-16T16:09:33;1.00;94.20
7016;DHT22;3548;48.402;9.990;2024-01-16T16:12:03;0.90;94.50